Stoneboro, South Carolina
Current Conditions -  °F | °C
As of 3:15 AM on Tuesday 27 Jan 2015 (Local Time) from KLKR Reporting Station
Clear Clear  
Wind Chill: 27°   Ceiling: Unl
Heat Index: 32°   Visibility: NA
Dew Point: 23°   Wind: 5mph
Humidity: 69%   Direction: 300°WNW
Pressure: 29.79"   Gusts: NA
Location:  34.5669°N, 80.7524°W
Report Text: KLKR 270815Z AUTO 30004KT CLR 00/M05 A2979 RMK AO2
Loading
Personal Weather Stations






























Interactive Weather Map New forecast layout! Learn more

10-Day Weather Forecast

Advertisements
Track Severe Weather on mobile